createdAt,value
2018-12-01T00:02:26.740Z,5.60
2018-12-01T00:07:11.747Z,5.60
2018-12-01T00:11:56.663Z,5.60
2018-12-01T00:16:41.671Z,5.60
2018-12-01T00:21:26.657Z,5.50
2018-12-01T00:26:11.675Z,5.50
2018-12-01T00:30:56.573Z,5.50
2018-12-01T00:35:41.599Z,5.50
2018-12-01T00:40:26.473Z,5.50
2018-12-01T00:45:12.508Z,5.50
2018-12-01T00:49:57.502Z,5.50
2018-12-01T00:54:42.535Z,5.60
2018-12-01T00:59:27.396Z,5.60
2018-12-01T01:04:12.220Z,5.70
2018-12-01T01:08:57.023Z,5.70
2018-12-01T01:13:41.826Z,5.60
2018-12-01T01:18:26.663Z,5.70
2018-12-01T01:23:11.524Z,5.70
2018-12-01T01:27:56.364Z,5.70
2018-12-01T01:32:41.275Z,5.60
2018-12-01T01:37:26.071Z,5.60
2018-12-01T01:42:10.925Z,5.60
2018-12-01T01:46:55.677Z,5.50
2018-12-01T01:51:40.482Z,5.50
2018-12-01T01:56:25.292Z,5.50
2018-12-01T02:01:10.217Z,5.40
2018-12-01T02:05:55.103Z,5.40
2018-12-01T02:10:39.906Z,5.40
2018-12-01T02:15:24.799Z,5.40
2018-12-01T02:20:15.342Z,5.40
2018-12-01T02:25:00.304Z,5.30
2018-12-01T02:29:45.256Z,5.40
2018-12-01T02:34:30.055Z,5.30
2018-12-01T02:39:14.920Z,5.30
2018-12-01T02:44:10.586Z,5.30
2018-12-01T02:48:55.385Z,5.40
2018-12-01T02:53:40.199Z,5.40
2018-12-01T02:58:25.053Z,5.40
2018-12-01T03:03:10.001Z,5.40
2018-12-01T03:07:54.887Z,5.30
2018-12-01T03:12:40.058Z,5.30
2018-12-01T03:17:24.833Z,5.30
2018-12-01T03:22:09.679Z,5.40
2018-12-01T03:26:54.684Z,5.30
2018-12-01T03:31:39.491Z,5.30
2018-12-01T03:36:24.325Z,5.30
2018-12-01T03:41:09.122Z,5.40
2018-12-01T03:45:54.017Z,5.40
2018-12-01T03:50:38.871Z,5.40
2018-12-01T03:55:27.240Z,5.40
2018-12-01T04:00:12.226Z,5.30
2018-12-01T04:04:57.097Z,5.30
2018-12-01T04:09:41.915Z,5.30
2018-12-01T04:14:26.800Z,5.20
2018-12-01T04:19:11.701Z,5.10
2018-12-01T04:23:56.633Z,5.00
2018-12-01T04:28:41.475Z,4.90
2018-12-01T04:33:26.277Z,4.80
2018-12-01T04:38:11.258Z,4.70
2018-12-01T04:42:56.135Z,4.60
2018-12-01T04:47:41.100Z,4.50
2018-12-01T04:52:26.083Z,4.30
2018-12-01T04:57:10.928Z,4.30
2018-12-01T05:01:55.897Z,4.20
2018-12-01T05:06:40.863Z,4.10
2018-12-01T05:11:25.845Z,4.20
2018-12-01T05:16:10.808Z,4.50
2018-12-01T05:20:55.759Z,4.60
2018-12-01T05:25:40.577Z,4.70
2018-12-01T05:30:25.529Z,4.60
2018-12-01T05:35:20.975Z,4.50
2018-12-01T05:40:08.160Z,4.40
2018-12-01T05:44:53.116Z,4.50
2018-12-01T05:49:37.983Z,4.60
2018-12-01T05:54:23.026Z,4.60
2018-12-01T05:59:07.924Z,4.60
2018-12-01T06:03:53.143Z,4.50
2018-12-01T06:08:38.121Z,4.40
2018-12-01T06:13:22.990Z,4.20
2018-12-01T06:18:07.977Z,4.00
2018-12-01T06:22:52.849Z,4.00
2018-12-01T06:27:37.775Z,3.90
2018-12-01T06:32:22.612Z,3.60
2018-12-01T06:37:07.421Z,3.40
2018-12-01T06:41:52.242Z,3.10
2018-12-01T06:46:37.141Z,3.20
2018-12-01T06:51:22.000Z,3.30
2018-12-01T06:56:06.838Z,3.10
2018-12-01T07:00:51.720Z,2.90
2018-12-01T07:05:36.518Z,2.80
2018-12-01T07:10:22.233Z,2.70
2018-12-01T07:15:09.444Z,2.70
2018-12-01T07:19:54.308Z,3.20
2018-12-01T07:24:39.123Z,3.10
2018-12-01T07:29:24.068Z,2.80
2018-12-01T07:34:08.990Z,2.70
2018-12-01T07:38:53.808Z,2.70
2018-12-01T07:43:38.658Z,2.70
2018-12-01T07:48:23.559Z,2.70
2018-12-01T07:53:08.483Z,2.60
2018-12-01T07:57:53.411Z,2.50
2018-12-01T08:02:38.417Z,2.50
2018-12-01T08:07:23.267Z,2.50
2018-12-01T08:12:08.188Z,2.40
2018-12-01T08:16:53.169Z,2.40
2018-12-01T08:21:37.990Z,2.50
2018-12-01T08:26:22.813Z,2.60
2018-12-01T08:31:07.680Z,3.00
2018-12-01T08:35:52.595Z,3.40
2018-12-01T08:40:37.463Z,3.50
2018-12-01T08:45:22.604Z,3.20
2018-12-01T08:50:09.989Z,3.40
2018-12-01T08:54:54.849Z,5.10
2018-12-01T08:59:39.736Z,6.30
2018-12-01T09:04:24.789Z,7.50
2018-12-01T09:09:09.795Z,8.20
2018-12-01T09:13:54.682Z,8.50
2018-12-01T09:18:39.691Z,9.40
2018-12-01T09:23:24.589Z,9.60
2018-12-01T09:28:10.038Z,8.80
2018-12-01T09:32:54.917Z,8.30
2018-12-01T09:37:39.907Z,7.80
2018-12-01T09:42:24.926Z,6.90
2018-12-01T09:47:09.969Z,6.40
2018-12-01T09:51:54.870Z,6.60
2018-12-01T09:56:39.935Z,7.40
2018-12-01T10:01:24.923Z,9.10
2018-12-01T10:06:10.086Z,9.30
2018-12-01T10:10:54.995Z,9.90
2018-12-01T10:15:39.922Z,10.00
2018-12-01T10:20:28.925Z,9.30
2018-12-01T10:25:14.989Z,9.30
2018-12-01T10:29:59.911Z,10.40
2018-12-01T10:34:44.879Z,10.60
2018-12-01T10:39:29.737Z,10.20
2018-12-01T10:44:14.595Z,9.40
2018-12-01T10:48:59.474Z,10.80
2018-12-01T10:53:44.380Z,13.00
2018-12-01T10:58:29.248Z,14.80
2018-12-01T11:03:19.217Z,16.60
2018-12-01T11:08:05.182Z,17.40
2018-12-01T11:12:50.287Z,17.80
2018-12-01T11:17:35.256Z,17.60
2018-12-01T11:22:20.519Z,18.30
2018-12-01T11:27:05.494Z,18.80
2018-12-01T11:31:50.397Z,18.30
2018-12-01T11:36:35.517Z,17.90
2018-12-01T11:41:21.520Z,17.40
2018-12-01T11:46:06.475Z,17.80
2018-12-01T11:50:51.410Z,17.80
2018-12-01T11:55:36.465Z,17.70
2018-12-01T12:00:28.340Z,16.70
2018-12-01T12:05:14.051Z,14.20
2018-12-01T12:09:59.042Z,12.40
2018-12-01T12:14:44.124Z,11.80
2018-12-01T12:19:29.228Z,11.40
2018-12-01T12:24:14.099Z,11.10
2018-12-01T12:28:59.038Z,12.10
2018-12-01T12:33:44.101Z,12.60
2018-12-01T12:38:29.066Z,12.30
2018-12-01T12:43:13.934Z,12.50
2018-12-01T12:47:58.921Z,13.40
2018-12-01T12:52:44.550Z,16.80
2018-12-01T12:57:29.497Z,15.30
2018-12-01T13:02:14.421Z,16.20
2018-12-01T13:06:59.369Z,17.60
2018-12-01T13:11:44.279Z,18.90
2018-12-01T13:16:29.127Z,20.20
2018-12-01T13:21:14.035Z,21.90
2018-12-01T13:25:59.006Z,23.40
2018-12-01T13:30:46.471Z,23.00
2018-12-01T13:35:31.424Z,21.10
2018-12-01T13:40:17.135Z,20.70
2018-12-01T13:45:02.175Z,20.80
2018-12-01T13:49:47.203Z,20.90
2018-12-01T13:54:32.164Z,21.10
2018-12-01T13:59:17.242Z,21.10
2018-12-01T14:04:02.318Z,18.50
2018-12-01T14:08:47.202Z,19.80
2018-12-01T14:13:32.103Z,21.30
2018-12-01T14:18:17.108Z,20.60
2018-12-01T14:23:02.129Z,17.80
2018-12-01T14:27:49.415Z,15.30
2018-12-01T14:32:34.585Z,13.60
2018-12-01T14:37:19.461Z,12.50
2018-12-01T14:42:04.552Z,11.70
2018-12-01T14:46:49.578Z,11.20
2018-12-01T14:51:34.582Z,10.50
2018-12-01T14:56:20.073Z,9.60
2018-12-01T15:01:05.053Z,8.80
2018-12-01T15:05:50.051Z,8.30
2018-12-01T15:10:35.184Z,7.90
2018-12-01T15:15:22.261Z,7.50
2018-12-01T15:20:10.993Z,7.30
2018-12-01T15:24:55.889Z,7.00
2018-12-01T15:29:40.896Z,6.70
2018-12-01T15:34:25.895Z,6.30
2018-12-01T15:39:11.891Z,5.90
2018-12-01T15:43:56.937Z,5.70
2018-12-01T15:48:41.858Z,5.60
2018-12-01T15:53:26.741Z,5.50
2018-12-01T15:58:11.724Z,5.40
2018-12-01T16:02:56.703Z,5.30
2018-12-01T16:07:41.844Z,5.30
2018-12-01T16:12:26.961Z,5.10
2018-12-01T16:17:12.278Z,4.90
2018-12-01T16:21:57.550Z,4.80
2018-12-01T16:26:42.522Z,4.60
2018-12-01T16:31:27.735Z,4.30
2018-12-01T16:36:12.891Z,4.30
2018-12-01T16:40:59.312Z,5.80
2018-12-01T16:45:45.428Z,4.90
2018-12-01T16:50:30.831Z,4.50
2018-12-01T16:55:17.261Z,4.40
2018-12-01T17:00:02.275Z,4.20
2018-12-01T17:04:47.424Z,4.10
2018-12-01T17:09:32.342Z,3.90
2018-12-01T17:14:17.391Z,3.90
2018-12-01T17:19:02.782Z,4.00
2018-12-01T17:23:47.734Z,4.00
2018-12-01T17:28:32.830Z,3.90
2018-12-01T17:33:17.961Z,3.90
2018-12-01T17:38:04.233Z,3.90
2018-12-01T17:42:51.249Z,4.10
2018-12-01T17:47:36.259Z,4.20
2018-12-01T17:52:21.199Z,4.10
2018-12-01T17:57:06.155Z,4.00
2018-12-01T18:01:51.102Z,4.00
2018-12-01T18:06:35.985Z,3.80
2018-12-01T18:11:20.911Z,3.70
2018-12-01T18:16:06.318Z,3.70
2018-12-01T18:20:51.252Z,3.40
2018-12-01T18:25:42.033Z,3.30
2018-12-01T18:30:34.687Z,3.40
2018-12-01T18:35:19.654Z,3.40
2018-12-01T18:40:09.049Z,3.20
2018-12-01T18:44:53.912Z,3.10
2018-12-01T18:49:38.842Z,3.10
2018-12-01T18:54:23.790Z,3.40
2018-12-01T18:59:08.802Z,3.40
2018-12-01T19:03:53.772Z,3.30
2018-12-01T19:08:38.820Z,3.30
2018-12-01T19:13:24.116Z,3.20
2018-12-01T19:18:09.867Z,3.10
2018-12-01T19:22:55.209Z,3.30
2018-12-01T19:27:40.278Z,3.20
2018-12-01T19:32:25.313Z,3.20
2018-12-01T19:37:10.391Z,3.20
2018-12-01T19:41:55.327Z,3.10
2018-12-01T19:46:40.425Z,3.20
2018-12-01T19:51:25.492Z,3.20
2018-12-01T19:56:10.558Z,3.20
2018-12-01T20:00:56.895Z,3.10
2018-12-01T20:05:42.015Z,3.20
2018-12-01T20:10:33.491Z,3.20
2018-12-01T20:15:22.748Z,3.30
2018-12-01T20:20:07.832Z,3.30
2018-12-01T20:24:53.908Z,3.30
2018-12-01T20:29:38.955Z,3.40
2018-12-01T20:34:24.085Z,3.40
2018-12-01T20:39:40.599Z,3.50
2018-12-01T20:44:25.576Z,3.40
2018-12-01T20:49:10.650Z,3.10
2018-12-01T20:53:55.774Z,3.10
2018-12-01T20:58:40.854Z,3.10
2018-12-01T21:03:25.922Z,3.00
2018-12-01T21:08:11.028Z,3.20
2018-12-01T21:12:56.653Z,3.10
2018-12-01T21:17:42.953Z,3.00
2018-12-01T21:22:27.943Z,3.10
2018-12-01T21:27:13.144Z,3.00
2018-12-01T21:31:58.191Z,3.00
2018-12-01T21:36:43.346Z,3.10
2018-12-01T21:41:28.473Z,3.20
2018-12-01T21:46:13.797Z,3.40
2018-12-01T21:50:59.275Z,3.50
2018-12-01T21:55:44.495Z,3.60
2018-12-01T22:00:30.666Z,3.60
2018-12-01T22:05:17.413Z,3.60
2018-12-01T22:10:02.373Z,3.60
2018-12-01T22:14:47.462Z,3.60
2018-12-01T22:19:32.469Z,3.60
2018-12-01T22:24:17.480Z,3.60
2018-12-01T22:29:02.394Z,3.60
2018-12-01T22:33:47.391Z,3.70
2018-12-01T22:38:32.347Z,3.60
2018-12-01T22:43:17.336Z,3.70
2018-12-01T22:48:02.964Z,3.80
2018-12-01T22:52:47.924Z,4.00
2018-12-01T22:57:32.817Z,4.10
2018-12-01T23:02:17.849Z,4.10
2018-12-01T23:07:02.753Z,3.90
2018-12-01T23:11:47.612Z,3.80
2018-12-01T23:16:32.434Z,3.70
2018-12-01T23:21:20.585Z,3.70
2018-12-01T23:26:02.216Z,3.70
2018-12-01T23:30:51.567Z,3.70
2018-12-01T23:35:36.530Z,3.80
2018-12-01T23:40:21.534Z,3.80
2018-12-01T23:45:09.269Z,3.80
2018-12-01T23:49:54.138Z,3.80
2018-12-01T23:54:38.949Z,3.90
2018-12-01T23:59:23.881Z,3.80
